Time;durP1;ratioP1;P1;durP2;ratioP2;P2;SDS_P1;SDS_P2;PMS_P1;PMS_P2;Temp;Humidity;BMP_temperature;BMP_pressure;BME280_temperature;BME280_humidity;BME280_pressure;Samples;Min_cycle;Max_cycle;Signal;HPM_P1;HPM_P2
2021/06/14 00:01:35;;;;;;;4.63;2.13;;;18.00;39.90;;;;;;5092975;28;20066;-68
2021/06/14 00:04:01;;;;;;;4.35;1.77;;;18.00;39.80;;;;;;5104481;28;20028;-69
2021/06/14 00:06:27;;;;;;;3.00;1.95;;;17.90;40.10;;;;;;5094636;28;20115;-69
2021/06/14 00:08:52;;;;;;;4.22;2.00;;;17.80;40.10;;;;;;5091576;28;20506;-68
2021/06/14 00:11:18;;;;;;;5.65;2.28;;;17.80;40.50;;;;;;5092225;28;20499;-69
2021/06/14 00:13:44;;;;;;;5.85;1.80;;;17.80;40.70;;;;;;5092572;28;20393;-69
2021/06/14 00:16:10;;;;;;;5.43;2.03;;;17.70;40.50;;;;;;5112434;28;20020;-69
2021/06/14 00:18:36;;;;;;;6.15;2.42;;;17.60;40.80;;;;;;5111694;28;20027;-68
2021/06/14 00:21:09;;;;;;;4.40;1.98;;;17.60;41.40;;;;;;5112958;28;20023;-69
2021/06/14 00:23:36;;;;;;;4.10;2.00;;;17.50;41.40;;;;;;5112858;28;20023;-69
2021/06/14 00:26:04;;;;;;;6.72;1.85;;;17.40;41.20;;;;;;5093886;28;20393;-69
2021/06/14 00:28:30;;;;;;;8.38;2.30;;;17.40;41.30;;;;;;5092564;28;20485;-69
2021/06/14 00:30:56;;;;;;;5.68;2.50;;;17.30;41.50;;;;;;5092496;28;20024;-69
2021/06/14 00:33:22;;;;;;;3.67;2.13;;;17.20;41.60;;;;;;5098844;28;20089;-69
2021/06/14 00:35:49;;;;;;;6.30;2.58;;;17.20;41.30;;;;;;5111380;28;20055;-69
2021/06/14 00:38:15;;;;;;;4.35;2.00;;;17.10;41.60;;;;;;5112789;28;20019;-69
2021/06/14 00:40:42;;;;;;;6.10;1.77;;;17.10;41.90;;;;;;5112635;28;20015;-69
2021/06/14 00:43:09;;;;;;;8.18;2.35;;;17.00;42.10;;;;;;5100535;28;20385;-69
2021/06/14 00:45:39;;;;;;;30.50;3.80;;;17.00;41.90;;;;;;5092259;28;20020;-69
2021/06/14 00:48:07;;;;;;;9.48;2.40;;;16.90;42.00;;;;;;5092288;28;20024;-69
2021/06/14 00:50:39;;;;;;;3.80;1.85;;;16.90;42.20;;;;;;5092012;28;20040;-69
2021/06/14 00:53:10;;;;;;;3.85;1.75;;;16.90;42.30;;;;;;5098064;28;20031;-69
2021/06/14 00:55:37;;;;;;;4.55;1.83;;;16.80;42.50;;;;;;5112389;28;20111;-69
2021/06/14 00:58:03;;;;;;;11.55;2.42;;;16.80;42.50;;;;;;5117257;28;20377;-69
2021/06/14 01:00:29;;;;;;;6.75;2.00;;;16.70;42.70;;;;;;5119363;27;20023;-69
2021/06/14 01:02:55;;;;;;;5.45;2.03;;;16.70;42.70;;;;;;5114602;28;20103;-69
2021/06/14 01:05:28;;;;;;;3.83;2.08;;;16.70;42.70;;;;;;5098839;28;20085;-69
2021/06/14 01:07:54;;;;;;;4.43;1.88;;;16.60;42.70;;;;;;5098896;28;20052;-69
2021/06/14 01:10:20;;;;;;;3.95;1.75;;;16.60;42.60;;;;;;5097485;28;20066;-69
2021/06/14 01:12:55;;;;;;;5.32;1.98;;;16.60;42.80;;;;;;5098588;28;20080;-68
2021/06/14 01:15:20;;;;;;;;;;;16.50;43.20;;;;;;5099041;28;20028;-69
2021/06/14 01:17:55;;;;;;;9.27;2.17;;;16.50;42.10;;;;;;5098798;28;19914;-69
2021/06/14 01:20:42;;;;;;;8.63;2.20;;;16.50;43.10;;;;;;5098747;28;20017;-69
2021/06/14 01:23:30;;;;;;;3.15;1.75;;;16.50;43.20;;;;;;5098565;28;20028;-69
2021/06/14 01:26:04;;;;;;;11.82;2.33;;;16.40;43.40;;;;;;5098644;28;20024;-68
2021/06/14 01:28:33;;;;;;;5.18;2.35;;;16.40;43.50;;;;;;5098599;28;20021;-69
2021/06/14 01:30:59;;;;;;;4.43;2.05;;;16.30;43.60;;;;;;5097243;28;20487;-69
2021/06/14 01:33:28;;;;;;;5.13;2.03;;;16.30;43.60;;;;;;5098678;28;20103;-69
2021/06/14 01:36:01;;;;;;;9.00;2.45;;;16.30;43.90;;;;;;5098389;28;20048;-69
2021/06/14 01:38:29;;;;;;;8.65;2.80;;;16.20;44.40;;;;;;5104334;28;20015;-69
2021/06/14 01:40:59;;;;;;;6.20;2.40;;;16.20;44.80;;;;;;5118900;27;20030;-69
2021/06/14 01:43:27;;;;;;;16.63;2.30;;;16.20;45.10;;;;;;5106389;28;20390;-68
2021/06/14 01:45:56;;;;;;;5.05;1.83;;;16.20;44.90;;;;;;5098439;28;20069;-69
2021/06/14 01:48:24;;;;;;;6.75;1.75;;;16.20;45.10;;;;;;5114156;28;20115;-69
2021/06/14 01:50:52;;;;;;;8.07;2.40;;;16.10;45.00;;;;;;5098192;28;20040;-68
2021/06/14 01:53:18;;;;;;;5.40;2.40;;;16.10;45.20;;;;;;5098176;28;20028;-70
2021/06/14 01:55:45;;;;;;;5.32;2.00;;;16.10;45.60;;;;;;5098281;28;20548;-68
2021/06/14 01:58:12;;;;;;;4.07;2.03;;;16.10;45.80;;;;;;5098365;28;20012;-69
2021/06/14 02:00:41;;;;;;;4.15;2.22;;;16.10;45.50;;;;;;5098339;28;20016;-69
2021/06/14 02:03:08;;;;;;;4.25;1.55;;;16.00;45.70;;;;;;5107558;28;20054;-69
2021/06/14 02:05:34;;;;;;;13.15;2.22;;;16.00;45.50;;;;;;5118752;27;20468;-69
2021/06/14 02:08:01;;;;;;;10.93;2.25;;;16.00;45.70;;;;;;5118220;27;20035;-69
2021/06/14 02:10:29;;;;;;;3.47;2.00;;;16.00;45.80;;;;;;5114857;28;20103;-69
2021/06/14 02:12:55;;;;;;;4.88;2.03;;;15.90;46.10;;;;;;5114404;27;20173;-69
2021/06/14 02:15:22;;;;;;;4.60;2.08;;;15.90;46.30;;;;;;5115316;28;20024;-69
2021/06/14 02:17:52;;;;;;;4.25;1.98;;;15.90;46.30;;;;;;5115644;28;20016;-69
2021/06/14 02:20:17;;;;;;;5.50;2.35;;;15.90;46.20;;;;;;5114636;28;20034;-69
2021/06/14 02:22:43;;;;;;;3.75;2.05;;;15.80;46.10;;;;;;5113649;28;20020;-69
2021/06/14 02:25:11;;;;;;;6.53;2.45;;;15.90;46.20;;;;;;5116160;28;20023;-68
2021/06/14 02:27:38;;;;;;;5.82;2.22;;;15.80;46.50;;;;;;5116113;28;20486;-69
2021/06/14 02:30:16;;;;;;;4.03;2.00;;;15.80;46.60;;;;;;5116041;28;20026;-69
2021/06/14 02:32:43;;;;;;;4.20;1.98;;;15.80;46.90;;;;;;5103374;28;20413;-68
2021/06/14 02:35:10;;;;;;;8.77;2.28;;;15.70;46.30;;;;;;5095486;28;20484;-69
2021/06/14 02:37:38;;;;;;;7.35;2.90;;;15.70;46.60;;;;;;5105847;28;20019;-69
2021/06/14 02:40:09;;;;;;;9.32;2.85;;;15.70;46.80;;;;;;5115841;28;20015;-69
2021/06/14 02:42:37;;;;;;;2.50;1.80;;;15.60;46.70;;;;;;5115762;28;20019;-68
2021/06/14 02:45:06;;;;;;;6.90;2.38;;;15.60;46.50;;;;;;5114025;28;20035;-69
2021/06/14 02:47:34;;;;;;;5.57;2.20;;;15.60;46.70;;;;;;5115663;28;20016;-68
2021/06/14 02:50:04;;;;;;;7.38;2.50;;;15.60;47.00;;;;;;5115391;27;20035;-68
2021/06/14 02:52:33;;;;;;;5.28;2.15;;;15.60;47.00;;;;;;5104214;28;20039;-69
2021/06/14 02:55:13;;;;;;;6.63;2.30;;;15.50;47.30;;;;;;5093517;28;20039;-69
2021/06/14 02:58:00;;;;;;;5.45;2.03;;;15.50;47.30;;;;;;5093262;28;20032;-69
2021/06/14 03:00:30;;;;;;;6.10;2.72;;;15.50;47.20;;;;;;5093988;28;20500;-68
2021/06/14 03:03:04;;;;;;;5.53;2.40;;;15.50;47.50;;;;;;5094827;28;20036;-69
2021/06/14 03:05:31;;;;;;;6.18;2.38;;;15.50;47.70;;;;;;5092180;28;20062;-69
2021/06/14 03:07:58;;;;;;;10.38;2.17;;;15.50;47.60;;;;;;5092906;28;20374;-69
2021/06/14 03:10:25;;;;;;;6.32;2.28;;;15.50;47.50;;;;;;5093130;28;20031;-69
2021/06/14 03:12:53;;;;;;;5.90;2.67;;;15.40;47.70;;;;;;5093939;28;20020;-69
2021/06/14 03:15:20;;;;;;;6.03;2.20;;;15.40;47.80;;;;;;5092484;28;20024;-69
2021/06/14 03:17:46;;;;;;;7.05;2.33;;;15.40;47.80;;;;;;5093769;28;20020;-69
2021/06/14 03:20:13;;;;;;;9.50;2.95;;;15.40;47.90;;;;;;5092892;28;20028;-68
2021/06/14 03:22:39;;;;;;;8.00;2.42;;;15.40;48.40;;;;;;5093407;28;20066;-69
2021/06/14 03:25:06;;;;;;;9.18;2.78;;;15.40;48.40;;;;;;5093447;28;20469;-69
2021/06/14 03:27:33;;;;;;;7.10;2.63;;;15.40;48.40;;;;;;5093887;28;20145;-68
2021/06/14 03:29:59;;;;;;;6.40;2.58;;;15.40;48.60;;;;;;5093554;28;20061;-69
2021/06/14 03:32:26;;;;;;;15.00;3.33;;;15.40;48.60;;;;;;5093528;28;20039;-68
2021/06/14 03:34:54;;;;;;;9.63;3.88;;;15.40;48.70;;;;;;5103575;28;20027;-68
2021/06/14 03:37:20;;;;;;;8.85;2.75;;;15.40;48.70;;;;;;5113697;28;20077;-68
2021/06/14 03:39:46;;;;;;;7.38;1.95;;;15.40;48.60;;;;;;5112508;28;20039;-68
2021/06/14 03:42:19;;;;;;;3.97;2.10;;;15.40;48.50;;;;;;5113952;28;20012;-69
2021/06/14 03:44:46;;;;;;;6.93;2.50;;;15.40;48.60;;;;;;5113735;28;20489;-68
2021/06/14 03:47:11;;;;;;;10.90;2.83;;;15.40;48.60;;;;;;5112323;28;20032;-69
2021/06/14 03:49:37;;;;;;;6.38;2.28;;;15.50;48.60;;;;;;5113056;28;20032;-69
2021/06/14 03:52:03;;;;;;;5.93;2.00;;;15.50;48.60;;;;;;5113268;28;20043;-69
2021/06/14 03:54:29;;;;;;;3.42;2.25;;;15.50;48.60;;;;;;5113414;28;20055;-68
2021/06/14 03:56:55;;;;;;;7.90;2.75;;;15.50;48.60;;;;;;5113421;28;20047;-68
2021/06/14 03:59:20;;;;;;;21.50;2.67;;;15.50;48.70;;;;;;5108258;28;20423;-69
2021/06/14 04:01:46;;;;;;;11.45;2.80;;;15.60;48.80;;;;;;5113421;28;20036;-69
2021/06/14 04:04:58;;;;;;;6.55;2.25;;;15.70;48.80;;;;;;5113290;28;20019;-68
2021/06/14 04:06:58;;;;;;;5.22;2.38;;;15.70;48.90;;;;;;5088589;28;20024;-69
2021/06/14 04:09:24;;;;;;;5.72;2.30;;;15.80;49.10;;;;;;5092959;28;20068;-68
2021/06/14 04:11:50;;;;;;;7.57;3.03;;;15.80;49.00;;;;;;5092669;28;20023;-69
2021/06/14 04:14:16;;;;;;;11.00;3.17;;;15.90;49.50;;;;;;5092919;28;20028;-69
2021/06/14 04:16:42;;;;;;;8.23;3.42;;;15.90;49.70;;;;;;5092603;28;20101;-69
2021/06/14 04:19:08;;;;;;;13.68;2.50;;;16.00;49.70;;;;;;5092714;28;20508;-69
2021/06/14 04:21:33;;;;;;;8.48;2.35;;;16.10;49.50;;;;;;5091456;28;20032;-69
2021/06/14 04:23:59;;;;;;;14.00;3.00;;;16.10;49.40;;;;;;5097982;28;20027;-69
2021/06/14 04:26:25;;;;;;;9.70;3.67;;;16.20;49.50;;;;;;5113042;28;20385;-69
2021/06/14 04:28:51;;;;;;;10.30;3.00;;;16.30;49.60;;;;;;5112883;28;20031;-69
2021/06/14 04:31:16;;;;;;;4.90;2.53;;;16.30;49.50;;;;;;5096332;28;20027;-69
2021/06/14 04:33:42;;;;;;;7.25;2.78;;;16.40;49.40;;;;;;5111681;28;20023;-68
2021/06/14 04:36:08;;;;;;;8.98;3.55;;;16.40;49.30;;;;;;5111425;28;20389;-69
2021/06/14 04:38:34;;;;;;;7.95;3.03;;;16.50;49.30;;;;;;5112905;28;20047;-69
2021/06/14 04:41:00;;;;;;;6.28;2.70;;;16.50;49.20;;;;;;5112719;28;20380;-69
2021/06/14 04:43:26;;;;;;;6.93;3.47;;;16.60;49.00;;;;;;5111177;28;20028;-69
2021/06/14 04:45:52;;;;;;;14.90;3.08;;;16.70;49.10;;;;;;5092271;28;20115;-69
2021/06/14 04:48:18;;;;;;;5.60;2.90;;;16.70;48.80;;;;;;5097566;28;20036;-69
2021/06/14 04:50:44;;;;;;;9.00;3.03;;;16.80;48.90;;;;;;5092128;28;20507;-69
2021/06/14 04:53:09;;;;;;;8.73;3.30;;;16.80;49.00;;;;;;5092339;28;20032;-69
2021/06/14 04:55:35;;;;;;;14.43;3.65;;;16.90;49.00;;;;;;5091945;28;20072;-69
2021/06/14 04:58:01;;;;;;;16.27;4.30;;;17.00;49.10;;;;;;5104424;28;20107;-69
2021/06/14 05:00:28;;;;;;;10.63;3.42;;;17.00;49.00;;;;;;5092354;28;20035;-69
2021/06/14 05:02:54;;;;;;;9.10;3.50;;;17.00;48.80;;;;;;5092277;28;20024;-68
2021/06/14 05:05:20;;;;;;;9.70;2.97;;;17.10;48.60;;;;;;5092086;28;20024;-69
2021/06/14 05:07:46;;;;;;;5.53;2.95;;;17.20;48.40;;;;;;5092216;28;20126;-70
2021/06/14 05:10:11;;;;;;;11.32;3.47;;;17.20;48.30;;;;;;5091976;28;20477;-68
2021/06/14 05:12:37;;;;;;;15.13;3.42;;;17.30;48.20;;;;;;5091972;28;20032;-68
2021/06/14 05:15:05;;;;;;;9.82;3.15;;;17.40;48.20;;;;;;5092022;28;20021;-69
2021/06/14 05:17:31;;;;;;;11.25;3.50;;;17.40;48.00;;;;;;5092019;28;20047;-68
2021/06/14 05:19:56;;;;;;;10.27;2.75;;;17.50;48.70;;;;;;5091972;28;20105;-68
2021/06/14 05:22:22;;;;;;;12.85;2.95;;;17.60;48.10;;;;;;5091787;28;20085;-68
2021/06/14 05:24:48;;;;;;;8.30;2.92;;;17.70;48.10;;;;;;5092002;28;20485;-68
2021/06/14 05:27:13;;;;;;;5.18;2.50;;;17.70;47.70;;;;;;5091946;28;20027;-69
2021/06/14 05:29:39;;;;;;;3.47;1.83;;;17.80;47.30;;;;;;5090882;28;20481;-68
2021/06/14 05:32:05;;;;;;;5.72;2.33;;;17.90;46.80;;;;;;5091820;28;20386;-68
2021/06/14 05:34:31;;;;;;;8.63;2.42;;;18.00;46.20;;;;;;5090208;28;20123;-68
2021/06/14 05:36:57;;;;;;;5.57;2.63;;;18.10;46.30;;;;;;5091954;28;20099;-68
2021/06/14 05:39:23;;;;;;;6.47;2.28;;;18.10;46.20;;;;;;5091774;28;20477;-69
2021/06/14 05:41:49;;;;;;;7.40;3.22;;;18.20;46.00;;;;;;5091687;28;20544;-68
2021/06/14 05:44:15;;;;;;;11.63;3.75;;;18.30;45.60;;;;;;5092753;28;20020;-68
2021/06/14 05:46:41;;;;;;;11.20;4.18;;;18.40;44.80;;;;;;5107165;28;20426;-68
2021/06/14 05:49:07;;;;;;;12.95;3.45;;;18.50;44.50;;;;;;5115769;28;20023;-69
2021/06/14 05:51:33;;;;;;;8.23;4.03;;;18.60;44.50;;;;;;5112078;27;20149;-69
2021/06/14 05:53:59;;;;;;;17.50;5.18;;;18.60;44.40;;;;;;5102533;28;20028;-71
2021/06/14 05:56:25;;;;;;;8.85;3.80;;;18.70;44.10;;;;;;5115556;28;20104;-69
2021/06/14 05:58:52;;;;;;;10.77;4.15;;;18.80;44.00;;;;;;5113686;28;20019;-68
2021/06/14 06:01:17;;;;;;;12.07;4.38;;;18.90;43.80;;;;;;5097406;28;20028;-69
2021/06/14 06:03:43;;;;;;;9.07;3.72;;;18.90;43.40;;;;;;5093900;28;20084;-68
2021/06/14 06:06:09;;;;;;;7.25;3.80;;;19.00;43.30;;;;;;5101606;28;20036;-67
2021/06/14 06:08:35;;;;;;;7.85;2.97;;;19.10;42.90;;;;;;5097521;28;20032;-69
2021/06/14 06:11:00;;;;;;;7.30;3.13;;;19.20;42.80;;;;;;5097249;28;20051;-68
2021/06/14 06:13:26;;;;;;;5.93;3.42;;;19.20;42.60;;;;;;5094403;28;20085;-69
2021/06/14 06:15:52;;;;;;;8.98;3.28;;;19.30;42.30;;;;;;5104655;28;20035;-68
2021/06/14 06:18:18;;;;;;;6.80;2.90;;;19.40;42.10;;;;;;5095044;28;20065;-70
2021/06/14 06:20:43;;;;;;;15.70;2.47;;;19.40;42.30;;;;;;5094446;28;20355;-69
2021/06/14 06:23:09;;;;;;;8.80;2.70;;;19.50;42.50;;;;;;5096234;28;20031;-69
2021/06/14 06:25:35;;;;;;;8.20;2.88;;;19.60;42.30;;;;;;5095927;28;20073;-68
2021/06/14 06:28:01;;;;;;;9.32;2.80;;;19.60;41.20;;;;;;5096470;28;20397;-69
2021/06/14 06:30:29;;;;;;;8.30;2.50;;;19.70;40.60;;;;;;5098438;28;20095;-69
2021/06/14 06:32:55;;;;;;;7.47;2.95;;;19.70;40.10;;;;;;5115105;28;20035;-68
2021/06/14 06:35:22;;;;;;;7.10;2.70;;;19.80;39.90;;;;;;5115506;28;20024;-69
2021/06/14 06:37:48;;;;;;;9.45;2.50;;;19.80;40.30;;;;;;5115380;28;20016;-69
2021/06/14 06:40:15;;;;;;;8.65;2.65;;;19.90;40.00;;;;;;5111380;28;20376;-70
2021/06/14 06:42:41;;;;;;;6.80;2.70;;;19.90;40.10;;;;;;5098973;28;20024;-70
2021/06/14 06:45:09;;;;;;;4.13;2.03;;;20.00;40.00;;;;;;5110017;28;20032;-69
2021/06/14 06:47:35;;;;;;;6.20;2.40;;;20.10;40.60;;;;;;5115673;28;20414;-69
2021/06/14 06:50:02;;;;;;;6.18;2.95;;;20.20;39.80;;;;;;5115317;28;20059;-69
2021/06/14 06:52:29;;;;;;;6.60;2.72;;;20.20;39.10;;;;;;5115544;28;20164;-69
2021/06/14 06:54:55;;;;;;;6.28;2.40;;;20.30;38.90;;;;;;5115139;28;20031;-69
2021/06/14 06:57:20;;;;;;;6.50;2.67;;;20.30;38.80;;;;;;5113732;28;20388;-69
2021/06/14 06:59:46;;;;;;;8.05;2.65;;;20.40;37.80;;;;;;5097653;28;20109;-70
2021/06/14 07:02:13;;;;;;;5.00;2.40;;;20.40;38.10;;;;;;5102618;28;20016;-69
2021/06/14 07:04:38;;;;;;;7.80;2.72;;;20.40;38.40;;;;;;5100813;28;20028;-69
2021/06/14 07:07:05;;;;;;;8.25;3.45;;;20.50;37.90;;;;;;5107608;28;20102;-69
2021/06/14 07:09:31;;;;;;;5.13;2.70;;;20.50;37.50;;;;;;5104318;28;20027;-69
2021/06/14 07:11:57;;;;;;;5.90;2.20;;;20.60;37.70;;;;;;5094705;28;20473;-69
2021/06/14 07:14:24;;;;;;;5.15;2.50;;;20.60;37.80;;;;;;5098161;28;20027;-70
2021/06/14 07:16:50;;;;;;;6.40;2.63;;;20.70;38.10;;;;;;5100386;28;20032;-69
2021/06/14 07:19:16;;;;;;;5.82;2.50;;;20.70;38.10;;;;;;5113375;28;20038;-69
2021/06/14 07:21:42;;;;;;;6.78;2.97;;;20.80;37.60;;;;;;5109172;28;20457;-69
2021/06/14 07:24:08;;;;;;;9.90;3.13;;;20.90;37.10;;;;;;5107688;28;20087;-69
2021/06/14 07:26:35;;;;;;;8.05;3.40;;;20.90;36.90;;;;;;5103916;28;20030;-70
2021/06/14 07:29:01;;;;;;;8.45;3.10;;;21.00;36.80;;;;;;5104709;28;20093;-69
2021/06/14 07:31:27;;;;;;;8.75;2.60;;;21.00;36.90;;;;;;5096041;28;20389;-70
2021/06/14 07:33:57;;;;;;;9.57;3.20;;;21.10;36.90;;;;;;5098785;28;20434;-69
2021/06/14 07:36:24;;;;;;;5.55;2.72;;;21.10;36.90;;;;;;5094543;28;20035;-69
2021/06/14 07:38:50;;;;;;;8.05;3.15;;;21.20;36.80;;;;;;5107244;28;20035;-70
2021/06/14 07:41:15;;;;;;;7.13;2.58;;;21.20;36.20;;;;;;5103681;28;20028;-69
2021/06/14 07:43:41;;;;;;;7.55;3.40;;;21.30;36.20;;;;;;5113606;28;20385;-69
2021/06/14 07:46:07;;;;;;;6.70;2.80;;;21.30;36.10;;;;;;5103674;28;20028;-69
2021/06/14 07:48:33;;;;;;;10.35;3.30;;;21.30;35.80;;;;;;5105527;28;20020;-69
2021/06/14 07:50:59;;;;;;;8.35;3.08;;;21.40;36.50;;;;;;5096897;28;20106;-69
2021/06/14 07:53:25;;;;;;;10.73;3.15;;;21.40;35.90;;;;;;5097230;28;20028;-70
2021/06/14 07:55:53;;;;;;;5.82;3.17;;;21.40;35.90;;;;;;5095057;28;20440;-69
2021/06/14 07:58:19;;;;;;;6.65;2.75;;;21.40;35.70;;;;;;5108947;28;20016;-69
2021/06/14 08:00:45;;;;;;;8.18;2.95;;;21.50;35.60;;;;;;5110158;27;20026;-69
2021/06/14 08:03:10;;;;;;;7.43;3.75;;;21.50;35.90;;;;;;5113243;28;20020;-69
2021/06/14 08:05:36;;;;;;;6.47;3.22;;;21.60;35.50;;;;;;5113803;28;20038;-70
2021/06/14 08:08:03;;;;;;;6.25;2.70;;;21.60;35.50;;;;;;5113470;28;20024;-69
2021/06/14 08:10:29;;;;;;;13.13;2.75;;;21.60;35.70;;;;;;5113920;28;20039;-71
2021/06/14 08:12:55;;;;;;;6.72;3.10;;;21.70;35.50;;;;;;5114018;28;20016;-68
2021/06/14 08:15:24;;;;;;;7.80;3.17;;;21.70;35.30;;;;;;5104775;28;20077;-70
2021/06/14 08:17:52;;;;;;;8.32;4.03;;;21.80;34.80;;;;;;5111530;28;20051;-68
2021/06/14 08:25:35;;;;;;;;;;;21.90;34.50;;;;;;5114083;28;20085;-68
2021/06/14 08:28:02;;;;;;;8.90;2.72;;;22.00;35.30;;;;;;5112837;28;19910;-68
2021/06/14 08:30:28;;;;;;;7.57;3.28;;;22.00;34.00;;;;;;5092052;28;20028;-70
2021/06/14 08:32:55;;;;;;;5.88;2.80;;;22.10;34.20;;;;;;5101411;28;20028;-68
2021/06/14 08:35:23;;;;;;;6.30;2.90;;;22.10;34.30;;;;;;5111570;28;20055;-68
2021/06/14 08:37:50;;;;;;;5.22;2.45;;;22.20;34.20;;;;;;5102128;28;20064;-68
2021/06/14 08:40:19;;;;;;;7.78;2.88;;;22.20;34.30;;;;;;5112719;28;20024;-68
2021/06/14 08:42:45;;;;;;;8.55;3.13;;;22.20;33.90;;;;;;5112297;28;20020;-68
2021/06/14 08:45:12;;;;;;;5.32;2.92;;;22.30;33.80;;;;;;5112494;28;20023;-68
2021/06/14 08:47:40;;;;;;;8.25;3.72;;;22.30;34.00;;;;;;5112725;28;20111;-68
2021/06/14 08:50:11;;;;;;;6.93;2.65;;;22.40;34.10;;;;;;5112211;28;20031;-71
2021/06/14 08:52:37;;;;;;;6.50;2.95;;;22.40;33.90;;;;;;5105682;28;20476;-68
2021/06/14 08:55:05;;;;;;;5.40;2.45;;;22.50;33.90;;;;;;5109075;28;20459;-68
2021/06/14 08:57:31;;;;;;;10.90;3.13;;;22.60;33.90;;;;;;5112403;28;20011;-70
2021/06/14 08:59:57;;;;;;;8.85;3.00;;;22.60;32.90;;;;;;5112827;28;20020;-68
2021/06/14 09:02:23;;;;;;;5.97;2.75;;;22.70;33.30;;;;;;5113301;28;20357;-69
2021/06/14 09:04:48;;;;;;;7.30;2.50;;;22.70;33.10;;;;;;5109111;28;20122;-68
2021/06/14 09:07:14;;;;;;;9.23;3.30;;;22.70;32.90;;;;;;5092736;28;20036;-69
2021/06/14 09:09:40;;;;;;;5.88;2.88;;;22.80;33.10;;;;;;5105839;28;20032;-69
2021/06/14 09:12:07;;;;;;;3.63;2.42;;;22.80;33.50;;;;;;5113722;28;20027;-69
2021/06/14 09:14:37;;;;;;;9.88;2.70;;;22.90;33.70;;;;;;5097751;28;20020;-68
2021/06/14 09:17:06;;;;;;;8.90;3.30;;;22.90;33.40;;;;;;5098298;28;20024;-69
2021/06/14 09:19:33;;;;;;;7.95;3.13;;;22.90;33.00;;;;;;5113482;28;20143;-69
2021/06/14 09:22:23;;;;;;;7.15;2.80;;;23.00;33.10;;;;;;5118476;28;20102;-69
2021/06/14 09:24:56;;;;;;;9.23;2.70;;;23.00;33.40;;;;;;5119042;28;20099;-69
2021/06/14 09:27:46;;;;;;;8.32;3.20;;;23.10;32.80;;;;;;5116827;28;20046;-69
2021/06/14 09:30:21;;;;;;;12.18;3.28;;;23.10;32.50;;;;;;5109060;28;20099;-69
2021/06/14 09:32:57;;;;;;;7.25;2.90;;;23.10;32.10;;;;;;5113875;28;20107;-69
2021/06/14 09:35:26;;;;;;;5.88;2.88;;;23.20;32.60;;;;;;5103941;28;20028;-69
2021/06/14 09:38:14;;;;;;;11.82;3.35;;;23.20;32.70;;;;;;5096817;28;20127;-69
2021/06/14 09:40:47;;;;;;;6.38;3.17;;;23.20;32.20;;;;;;5095959;28;20030;-69
2021/06/14 09:43:41;;;;;;;13.48;3.70;;;23.30;31.90;;;;;;5097264;28;20485;-68
2021/06/14 09:46:22;;;;;;;6.53;2.92;;;23.30;31.90;;;;;;5095176;28;20032;-69
2021/06/14 09:48:49;;;;;;;6.75;3.50;;;23.30;31.80;;;;;;5097158;28;20043;-69
2021/06/14 09:51:16;;;;;;;6.80;2.78;;;23.30;31.60;;;;;;5098003;28;20135;-68
2021/06/14 09:53:47;;;;;;;12.73;3.30;;;23.30;32.40;;;;;;5097947;28;20058;-70
2021/06/14 09:56:16;;;;;;;8.82;3.17;;;23.30;32.60;;;;;;5097489;28;20024;-69
2021/06/14 09:58:43;;;;;;;6.97;3.00;;;23.40;32.20;;;;;;5097324;28;20053;-69
2021/06/14 10:01:09;;;;;;;7.97;3.22;;;23.50;32.10;;;;;;5115729;28;20019;-69
2021/06/14 10:03:46;;;;;;;8.27;3.95;;;23.50;32.30;;;;;;5116581;28;20090;-69
2021/06/14 10:06:26;;;;;;;7.43;3.00;;;23.50;32.70;;;;;;5116525;28;20077;-68
2021/06/14 10:08:52;;;;;;;6.45;3.08;;;23.60;32.30;;;;;;5116513;28;20020;-68
2021/06/14 10:11:18;;;;;;;5.90;2.38;;;23.60;32.20;;;;;;5116373;28;20030;-68
2021/06/14 10:13:46;;;;;;;5.43;2.70;;;23.70;31.90;;;;;;5116388;28;20129;-69
2021/06/14 10:16:22;;;;;;;21.27;3.90;;;23.70;31.70;;;;;;5116249;28;20028;-69
2021/06/14 10:18:56;;;;;;;7.32;3.20;;;23.80;31.70;;;;;;5116287;28;20074;-68
2021/06/14 10:21:31;;;;;;;6.35;3.15;;;23.80;31.50;;;;;;5116204;28;20094;-72
2021/06/14 10:23:59;;;;;;;9.07;3.05;;;23.90;31.50;;;;;;5116176;28;20031;-69
2021/06/14 10:26:27;;;;;;;12.25;3.05;;;23.90;31.70;;;;;;5114669;28;20027;-69
2021/06/14 10:28:53;;;;;;;5.15;2.35;;;23.90;31.20;;;;;;5115929;28;20030;-70
2021/06/14 10:31:20;;;;;;;6.40;3.20;;;24.00;31.50;;;;;;5094822;28;20024;-69
2021/06/14 10:33:51;;;;;;;6.88;3.10;;;24.10;31.70;;;;;;5095673;28;20028;-69
2021/06/14 10:36:21;;;;;;;6.72;2.70;;;24.10;31.80;;;;;;5093995;28;20483;-69
2021/06/14 10:38:49;;;;;;;7.78;3.20;;;24.20;31.70;;;;;;5095527;28;20012;-68
2021/06/14 10:41:15;;;;;;;5.55;3.08;;;24.30;32.10;;;;;;5095398;28;20020;-69
2021/06/14 10:43:41;;;;;;;7.68;3.30;;;24.40;31.90;;;;;;5095387;28;20043;-69
2021/06/14 10:46:12;;;;;;;7.07;2.83;;;24.40;31.10;;;;;;5095301;28;20477;-69
2021/06/14 10:48:39;;;;;;;5.13;2.80;;;24.50;30.70;;;;;;5095266;28;20024;-68
2021/06/14 10:51:13;;;;;;;7.70;3.10;;;24.60;30.40;;;;;;5093669;28;20050;-69
2021/06/14 10:53:39;;;;;;;7.00;3.80;;;24.50;30.30;;;;;;5095221;28;20028;-69
2021/06/14 10:56:06;;;;;;;8.52;3.25;;;24.60;30.30;;;;;;5094963;28;20035;-69
2021/06/14 10:58:32;;;;;;;7.53;2.95;;;24.60;30.40;;;;;;5093818;28;20051;-69
2021/06/14 11:01:15;;;;;;;14.18;3.97;;;24.60;30.00;;;;;;5106543;28;20445;-69
2021/06/14 11:03:48;;;;;;;11.52;3.35;;;24.60;30.10;;;;;;5115301;28;20385;-69
2021/06/14 11:06:21;;;;;;;8.15;2.42;;;24.60;30.00;;;;;;5114068;28;20496;-69
2021/06/14 11:09:02;;;;;;;7.10;3.17;;;24.60;30.50;;;;;;5115227;27;20028;-69
2021/06/14 11:11:29;;;;;;;5.70;2.92;;;24.70;30.60;;;;;;5115305;28;20738;-69
2021/06/14 11:13:55;;;;;;;6.28;3.00;;;24.70;30.70;;;;;;5115099;28;20027;-70
2021/06/14 11:16:22;;;;;;;9.65;3.55;;;24.80;30.20;;;;;;5114897;28;20113;-69
2021/06/14 11:18:51;;;;;;;9.82;3.17;;;24.90;30.50;;;;;;5115013;28;20012;-70
2021/06/14 11:21:19;;;;;;;7.75;2.63;;;24.90;30.20;;;;;;5115127;28;20016;-70
2021/06/14 11:23:49;;;;;;;4.90;2.75;;;25.00;30.40;;;;;;5113474;28;20015;-70
2021/06/14 11:26:27;;;;;;;4.82;2.85;;;25.00;30.00;;;;;;5114850;28;20019;-70
2021/06/14 11:28:53;;;;;;;9.50;3.47;;;25.10;30.30;;;;;;5114832;28;20550;-70
2021/06/14 11:31:25;;;;;;;15.50;3.20;;;25.20;29.90;;;;;;5094895;28;20028;-70
2021/06/14 11:33:54;;;;;;;6.38;3.35;;;25.20;29.90;;;;;;5094522;28;20043;-70
2021/06/14 11:36:26;;;;;;;5.85;2.90;;;25.20;29.70;;;;;;5092918;28;20477;-69
2021/06/14 11:38:54;;;;;;;8.90;2.78;;;25.30;30.00;;;;;;5094250;28;20438;-70
2021/06/14 11:41:34;;;;;;;9.40;2.92;;;25.40;30.00;;;;;;5093195;28;20466;-69
2021/06/14 11:44:19;;;;;;;5.25;2.72;;;25.40;29.80;;;;;;5094042;28;20116;-69
2021/06/14 11:46:46;;;;;;;5.43;3.17;;;25.50;29.50;;;;;;5094061;28;20052;-70
2021/06/14 11:49:11;;;;;;;7.88;2.80;;;25.50;29.60;;;;;;5092577;28;20031;-69
2021/06/14 11:51:38;;;;;;;13.02;3.08;;;25.60;29.80;;;;;;5093922;28;20043;-70
2021/06/14 11:54:06;;;;;;;8.80;3.42;;;25.60;29.30;;;;;;5093916;28;20024;-69
2021/06/14 11:56:38;;;;;;;7.63;2.88;;;25.60;29.40;;;;;;5093833;28;20054;-69
2021/06/14 11:59:08;;;;;;;8.52;2.50;;;25.80;29.50;;;;;;5094252;28;20016;-69
2021/06/14 12:01:37;;;;;;;7.15;2.45;;;25.80;29.60;;;;;;5093979;28;20355;-69
2021/06/14 12:04:06;;;;;;;12.05;3.15;;;25.80;29.40;;;;;;5093464;28;20442;-69
2021/06/14 12:06:46;;;;;;;6.50;2.90;;;25.90;28.80;;;;;;5093792;28;20055;-70
2021/06/14 12:09:26;;;;;;;6.15;2.83;;;25.90;28.70;;;;;;5093936;28;20035;-70
2021/06/14 12:12:00;;;;;;;11.85;3.10;;;26.00;28.50;;;;;;5093572;28;20085;-70
2021/06/14 12:14:27;;;;;;;7.40;2.78;;;26.00;28.70;;;;;;5093641;28;20095;-69
2021/06/14 12:17:11;;;;;;;6.60;3.00;;;26.10;28.60;;;;;;5093510;28;20016;-70
2021/06/14 12:19:39;;;;;;;6.95;2.92;;;26.10;28.50;;;;;;5093372;28;20104;-70
2021/06/14 12:22:06;;;;;;;4.57;2.50;;;26.10;28.50;;;;;;5093555;28;20089;-70
2021/06/14 12:24:35;;;;;;;6.35;2.35;;;26.20;28.80;;;;;;5112012;28;20043;-70
2021/06/14 12:27:06;;;;;;;7.32;2.65;;;26.20;28.50;;;;;;5113761;28;20015;-69
2021/06/14 12:29:34;;;;;;;7.85;2.72;;;26.30;28.60;;;;;;5112061;28;20054;-70
2021/06/14 12:32:21;;;;;;;4.75;2.72;;;26.40;28.30;;;;;;5113745;28;20035;-69
2021/06/14 12:34:47;;;;;;;7.60;3.33;;;26.40;28.40;;;;;;5113144;28;20492;-70
2021/06/14 12:37:19;;;;;;;8.85;3.08;;;26.50;27.90;;;;;;5113539;28;20058;-69
2021/06/14 12:39:55;;;;;;;5.32;3.00;;;26.40;28.00;;;;;;5113671;28;20016;-69
2021/06/14 12:42:21;;;;;;;6.05;3.00;;;26.40;27.60;;;;;;5113615;28;20095;-70
2021/06/14 12:44:57;;;;;;;9.05;3.40;;;26.50;27.20;;;;;;5113458;28;20016;-70
2021/06/14 12:47:25;;;;;;;8.00;2.58;;;26.40;27.20;;;;;;5113607;28;20023;-70
2021/06/14 12:49:52;;;;;;;7.10;2.75;;;26.50;27.30;;;;;;5113136;28;20034;-70
2021/06/14 12:52:23;;;;;;;5.35;3.15;;;26.40;27.70;;;;;;5113291;28;20024;-69
2021/06/14 12:54:49;;;;;;;10.50;3.85;;;26.40;27.60;;;;;;5113264;28;20015;-69
2021/06/14 12:57:16;;;;;;;6.50;3.28;;;26.40;27.40;;;;;;5113395;28;20031;-70